sensor_id;sensor_type;location;lat;lon;timestamp;P1;durP1;ratioP1;P2;durP2;ratioP2
73515;SDS011;61763;51.416;5.442;2023-06-01T00:01:37;10.27;;;3.85;;
73515;SDS011;61763;51.416;5.442;2023-06-01T00:04:03;9.80;;;3.63;;
73515;SDS011;61763;51.416;5.442;2023-06-01T00:06:29;9.13;;;3.80;;
73515;SDS011;61763;51.416;5.442;2023-06-01T00:08:55;10.52;;;4.38;;
73515;SDS011;61763;51.416;5.442;2023-06-01T00:11:21;11.57;;;4.25;;
73515;SDS011;61763;51.416;5.442;2023-06-01T00:13:48;12.45;;;4.10;;
73515;SDS011;61763;51.416;5.442;2023-06-01T00:16:14;9.60;;;4.13;;
73515;SDS011;61763;51.416;5.442;2023-06-01T00:18:40;12.15;;;3.80;;
73515;SDS011;61763;51.416;5.442;2023-06-01T00:21:05;12.40;;;4.47;;
73515;SDS011;61763;51.416;5.442;2023-06-01T00:23:31;13.88;;;4.57;;
73515;SDS011;61763;51.416;5.442;2023-06-01T00:25:57;16.27;;;5.32;;
73515;SDS011;61763;51.416;5.442;2023-06-01T00:28:25;11.75;;;4.68;;
73515;SDS011;61763;51.416;5.442;2023-06-01T00:30:50;16.52;;;4.95;;
73515;SDS011;61763;51.416;5.442;2023-06-01T00:33:16;14.48;;;4.90;;
73515;SDS011;61763;51.416;5.442;2023-06-01T00:35:42;12.77;;;5.03;;
73515;SDS011;61763;51.416;5.442;2023-06-01T00:38:07;14.10;;;5.43;;
73515;SDS011;61763;51.416;5.442;2023-06-01T00:40:34;9.98;;;5.15;;
73515;SDS011;61763;51.416;5.442;2023-06-01T00:42:59;12.65;;;5.05;;
73515;SDS011;61763;51.416;5.442;2023-06-01T00:45:25;15.38;;;5.20;;
73515;SDS011;61763;51.416;5.442;2023-06-01T00:47:51;14.30;;;5.68;;
73515;SDS011;61763;51.416;5.442;2023-06-01T00:50:17;13.15;;;5.95;;
73515;SDS011;61763;51.416;5.442;2023-06-01T00:52:43;16.00;;;5.55;;
73515;SDS011;61763;51.416;5.442;2023-06-01T00:55:08;11.60;;;4.55;;
73515;SDS011;61763;51.416;5.442;2023-06-01T00:57:37;16.10;;;5.88;;
73515;SDS011;61763;51.416;5.442;2023-06-01T01:00:04;16.05;;;5.18;;
73515;SDS011;61763;51.416;5.442;2023-06-01T01:02:37;15.23;;;6.18;;
73515;SDS011;61763;51.416;5.442;2023-06-01T01:05:07;15.75;;;6.57;;
73515;SDS011;61763;51.416;5.442;2023-06-01T01:11:25;17.45;;;6.15;;
73515;SDS011;61763;51.416;5.442;2023-06-01T01:16:18;17.60;;;6.35;;
73515;SDS011;61763;51.416;5.442;2023-06-01T01:18:54;14.10;;;5.90;;
73515;SDS011;61763;51.416;5.442;2023-06-01T01:21:26;16.88;;;6.30;;
73515;SDS011;61763;51.416;5.442;2023-06-01T01:24:15;16.90;;;5.97;;
73515;SDS011;61763;51.416;5.442;2023-06-01T01:26:57;17.83;;;6.40;;
73515;SDS011;61763;51.416;5.442;2023-06-01T01:29:39;14.32;;;6.55;;
73515;SDS011;61763;51.416;5.442;2023-06-01T01:32:07;17.08;;;6.47;;
73515;SDS011;61763;51.416;5.442;2023-06-01T01:34:33;17.75;;;5.78;;
73515;SDS011;61763;51.416;5.442;2023-06-01T01:37:01;20.17;;;6.78;;
73515;SDS011;61763;51.416;5.442;2023-06-01T01:39:27;15.95;;;6.65;;
73515;SDS011;61763;51.416;5.442;2023-06-01T01:41:52;19.48;;;7.28;;
73515;SDS011;61763;51.416;5.442;2023-06-01T01:44:18;17.63;;;6.50;;
73515;SDS011;61763;51.416;5.442;2023-06-01T01:46:47;16.05;;;6.15;;
73515;SDS011;61763;51.416;5.442;2023-06-01T01:49:21;18.83;;;6.82;;
73515;SDS011;61763;51.416;5.442;2023-06-01T01:54:43;19.67;;;6.50;;
73515;SDS011;61763;51.416;5.442;2023-06-01T01:57:11;14.30;;;6.00;;
73515;SDS011;61763;51.416;5.442;2023-06-01T01:59:39;19.95;;;6.90;;
73515;SDS011;61763;51.416;5.442;2023-06-01T02:02:06;15.45;;;6.38;;
73515;SDS011;61763;51.416;5.442;2023-06-01T02:04:32;14.05;;;6.07;;
73515;SDS011;61763;51.416;5.442;2023-06-01T02:06:57;18.00;;;6.22;;
73515;SDS011;61763;51.416;5.442;2023-06-01T02:09:23;15.15;;;5.00;;
73515;SDS011;61763;51.416;5.442;2023-06-01T02:11:48;18.15;;;6.47;;
73515;SDS011;61763;51.416;5.442;2023-06-01T02:14:14;14.70;;;5.75;;
73515;SDS011;61763;51.416;5.442;2023-06-01T02:16:39;16.70;;;5.65;;
73515;SDS011;61763;51.416;5.442;2023-06-01T02:19:04;16.00;;;5.82;;
73515;SDS011;61763;51.416;5.442;2023-06-01T02:21:31;15.80;;;5.43;;
73515;SDS011;61763;51.416;5.442;2023-06-01T02:23:57;14.90;;;5.82;;
73515;SDS011;61763;51.416;5.442;2023-06-01T02:26:29;19.45;;;6.32;;
73515;SDS011;61763;51.416;5.442;2023-06-01T02:28:55;17.60;;;6.68;;
73515;SDS011;61763;51.416;5.442;2023-06-01T02:31:22;17.17;;;6.47;;
73515;SDS011;61763;51.416;5.442;2023-06-01T02:33:48;17.33;;;6.28;;
73515;SDS011;61763;51.416;5.442;2023-06-01T02:36:13;16.38;;;7.00;;
73515;SDS011;61763;51.416;5.442;2023-06-01T02:38:41;19.35;;;7.80;;
73515;SDS011;61763;51.416;5.442;2023-06-01T02:41:07;16.92;;;6.80;;
73515;SDS011;61763;51.416;5.442;2023-06-01T02:43:35;21.17;;;8.00;;
73515;SDS011;61763;51.416;5.442;2023-06-01T02:46:00;19.73;;;7.20;;
73515;SDS011;61763;51.416;5.442;2023-06-01T02:48:26;15.95;;;7.30;;
73515;SDS011;61763;51.416;5.442;2023-06-01T02:50:53;22.95;;;8.32;;
73515;SDS011;61763;51.416;5.442;2023-06-01T02:53:18;22.08;;;9.18;;
73515;SDS011;61763;51.416;5.442;2023-06-01T02:55:43;22.33;;;8.35;;
73515;SDS011;61763;51.416;5.442;2023-06-01T02:58:09;20.90;;;8.15;;
73515;SDS011;61763;51.416;5.442;2023-06-01T03:00:41;22.30;;;9.18;;
73515;SDS011;61763;51.416;5.442;2023-06-01T03:03:07;23.80;;;9.10;;
73515;SDS011;61763;51.416;5.442;2023-06-01T03:05:32;21.35;;;9.20;;
73515;SDS011;61763;51.416;5.442;2023-06-01T03:07:58;23.30;;;9.18;;
73515;SDS011;61763;51.416;5.442;2023-06-01T03:10:23;23.70;;;10.02;;
73515;SDS011;61763;51.416;5.442;2023-06-01T03:12:49;21.05;;;8.73;;
73515;SDS011;61763;51.416;5.442;2023-06-01T03:15:14;23.42;;;9.85;;
73515;SDS011;61763;51.416;5.442;2023-06-01T03:17:40;21.13;;;8.23;;
73515;SDS011;61763;51.416;5.442;2023-06-01T03:20:06;25.30;;;11.18;;
73515;SDS011;61763;51.416;5.442;2023-06-01T03:22:39;23.52;;;9.70;;
73515;SDS011;61763;51.416;5.442;2023-06-01T03:25:06;24.00;;;8.95;;
73515;SDS011;61763;51.416;5.442;2023-06-01T03:27:32;22.27;;;8.27;;
73515;SDS011;61763;51.416;5.442;2023-06-01T03:29:57;25.95;;;10.88;;
73515;SDS011;61763;51.416;5.442;2023-06-01T03:32:23;20.95;;;10.05;;
73515;SDS011;61763;51.416;5.442;2023-06-01T03:34:48;23.20;;;10.63;;
73515;SDS011;61763;51.416;5.442;2023-06-01T03:37:13;27.13;;;9.73;;
73515;SDS011;61763;51.416;5.442;2023-06-01T03:39:39;17.88;;;8.48;;
73515;SDS011;61763;51.416;5.442;2023-06-01T03:42:05;21.45;;;9.95;;
73515;SDS011;61763;51.416;5.442;2023-06-01T03:44:32;20.80;;;8.77;;
73515;SDS011;61763;51.416;5.442;2023-06-01T03:46:57;20.70;;;7.88;;
73515;SDS011;61763;51.416;5.442;2023-06-01T03:49:23;20.65;;;8.30;;
73515;SDS011;61763;51.416;5.442;2023-06-01T03:51:48;28.85;;;10.25;;
73515;SDS011;61763;51.416;5.442;2023-06-01T03:54:14;17.85;;;8.68;;
73515;SDS011;61763;51.416;5.442;2023-06-01T03:56:39;23.42;;;9.70;;
73515;SDS011;61763;51.416;5.442;2023-06-01T03:59:05;19.90;;;10.57;;
73515;SDS011;61763;51.416;5.442;2023-06-01T04:01:35;21.75;;;9.38;;
73515;SDS011;61763;51.416;5.442;2023-06-01T04:04:01;22.35;;;9.15;;
73515;SDS011;61763;51.416;5.442;2023-06-01T04:06:29;17.92;;;8.02;;
73515;SDS011;61763;51.416;5.442;2023-06-01T04:08:54;21.30;;;8.18;;
73515;SDS011;61763;51.416;5.442;2023-06-01T04:11:25;21.60;;;8.80;;
73515;SDS011;61763;51.416;5.442;2023-06-01T04:13:51;22.33;;;9.30;;
73515;SDS011;61763;51.416;5.442;2023-06-01T04:16:18;16.30;;;7.63;;
73515;SDS011;61763;51.416;5.442;2023-06-01T04:18:43;21.67;;;8.48;;
73515;SDS011;61763;51.416;5.442;2023-06-01T04:21:08;19.08;;;9.57;;
73515;SDS011;61763;51.416;5.442;2023-06-01T04:23:34;20.63;;;8.27;;
73515;SDS011;61763;51.416;5.442;2023-06-01T04:26:00;17.77;;;8.15;;
73515;SDS011;61763;51.416;5.442;2023-06-01T04:28:28;17.83;;;8.05;;
73515;SDS011;61763;51.416;5.442;2023-06-01T04:30:55;17.85;;;7.63;;
73515;SDS011;61763;51.416;5.442;2023-06-01T04:33:21;17.38;;;8.00;;
73515;SDS011;61763;51.416;5.442;2023-06-01T04:35:51;15.05;;;7.15;;
73515;SDS011;61763;51.416;5.442;2023-06-01T04:38:20;18.17;;;6.72;;
73515;SDS011;61763;51.416;5.442;2023-06-01T04:40:46;14.25;;;6.25;;
73515;SDS011;61763;51.416;5.442;2023-06-01T04:43:12;15.23;;;7.03;;
73515;SDS011;61763;51.416;5.442;2023-06-01T04:45:38;16.10;;;7.20;;
73515;SDS011;61763;51.416;5.442;2023-06-01T04:48:04;13.70;;;6.80;;
73515;SDS011;61763;51.416;5.442;2023-06-01T04:50:33;16.58;;;6.22;;
73515;SDS011;61763;51.416;5.442;2023-06-01T04:52:59;13.52;;;6.15;;
73515;SDS011;61763;51.416;5.442;2023-06-01T04:55:26;18.45;;;7.18;;
73515;SDS011;61763;51.416;5.442;2023-06-01T04:57:52;15.93;;;6.80;;
73515;SDS011;61763;51.416;5.442;2023-06-01T05:00:18;14.50;;;6.35;;
73515;SDS011;61763;51.416;5.442;2023-06-01T05:02:44;13.57;;;6.38;;
73515;SDS011;61763;51.416;5.442;2023-06-01T05:05:12;13.38;;;6.60;;
73515;SDS011;61763;51.416;5.442;2023-06-01T05:07:38;8.70;;;5.05;;
73515;SDS011;61763;51.416;5.442;2023-06-01T05:10:04;15.27;;;7.63;;
73515;SDS011;61763;51.416;5.442;2023-06-01T05:12:34;13.77;;;6.45;;
73515;SDS011;61763;51.416;5.442;2023-06-01T05:15:01;14.13;;;6.22;;
73515;SDS011;61763;51.416;5.442;2023-06-01T05:17:27;16.77;;;6.75;;
73515;SDS011;61763;51.416;5.442;2023-06-01T05:19:53;13.75;;;6.05;;
73515;SDS011;61763;51.416;5.442;2023-06-01T05:22:18;14.80;;;6.72;;
73515;SDS011;61763;51.416;5.442;2023-06-01T05:24:44;14.25;;;6.50;;
73515;SDS011;61763;51.416;5.442;2023-06-01T05:27:09;14.48;;;6.80;;
73515;SDS011;61763;51.416;5.442;2023-06-01T05:29:35;15.00;;;6.07;;
73515;SDS011;61763;51.416;5.442;2023-06-01T05:32:00;11.68;;;6.32;;
73515;SDS011;61763;51.416;5.442;2023-06-01T05:34:27;13.65;;;6.68;;
73515;SDS011;61763;51.416;5.442;2023-06-01T05:36:52;10.35;;;5.90;;
73515;SDS011;61763;51.416;5.442;2023-06-01T05:39:17;12.70;;;6.15;;
73515;SDS011;61763;51.416;5.442;2023-06-01T05:41:43;15.13;;;5.88;;
73515;SDS011;61763;51.416;5.442;2023-06-01T05:44:08;16.75;;;6.47;;
73515;SDS011;61763;51.416;5.442;2023-06-01T05:46:34;14.57;;;6.45;;
73515;SDS011;61763;51.416;5.442;2023-06-01T05:48:59;14.15;;;7.07;;
73515;SDS011;61763;51.416;5.442;2023-06-01T05:51:25;10.85;;;5.45;;
73515;SDS011;61763;51.416;5.442;2023-06-01T05:53:51;12.40;;;6.68;;
73515;SDS011;61763;51.416;5.442;2023-06-01T05:56:17;15.25;;;5.70;;
73515;SDS011;61763;51.416;5.442;2023-06-01T05:58:43;14.85;;;6.32;;
73515;SDS011;61763;51.416;5.442;2023-06-01T06:01:08;14.25;;;5.70;;
73515;SDS011;61763;51.416;5.442;2023-06-01T06:03:35;13.35;;;6.60;;
73515;SDS011;61763;51.416;5.442;2023-06-01T06:06:01;12.65;;;6.47;;
73515;SDS011;61763;51.416;5.442;2023-06-01T06:08:26;13.75;;;6.10;;
73515;SDS011;61763;51.416;5.442;2023-06-01T06:10:52;13.40;;;6.13;;
73515;SDS011;61763;51.416;5.442;2023-06-01T06:13:17;16.00;;;6.35;;
73515;SDS011;61763;51.416;5.442;2023-06-01T06:15:43;14.65;;;5.95;;
73515;SDS011;61763;51.416;5.442;2023-06-01T06:18:08;11.10;;;5.80;;
73515;SDS011;61763;51.416;5.442;2023-06-01T06:20:34;15.70;;;5.93;;
73515;SDS011;61763;51.416;5.442;2023-06-01T06:22:59;13.43;;;6.55;;
73515;SDS011;61763;51.416;5.442;2023-06-01T06:25:25;14.52;;;5.50;;
73515;SDS011;61763;51.416;5.442;2023-06-01T06:27:50;13.25;;;6.03;;
73515;SDS011;61763;51.416;5.442;2023-06-01T06:30:15;13.27;;;6.03;;
73515;SDS011;61763;51.416;5.442;2023-06-01T06:32:41;11.52;;;6.07;;
73515;SDS011;61763;51.416;5.442;2023-06-01T06:35:06;12.75;;;6.65;;
73515;SDS011;61763;51.416;5.442;2023-06-01T06:37:32;13.18;;;7.45;;
73515;SDS011;61763;51.416;5.442;2023-06-01T06:39:58;15.68;;;6.35;;
73515;SDS011;61763;51.416;5.442;2023-06-01T06:42:23;14.15;;;6.45;;
73515;SDS011;61763;51.416;5.442;2023-06-01T06:44:49;11.98;;;5.93;;
73515;SDS011;61763;51.416;5.442;2023-06-01T06:47:15;12.07;;;6.03;;
73515;SDS011;61763;51.416;5.442;2023-06-01T06:49:43;15.52;;;6.68;;
73515;SDS011;61763;51.416;5.442;2023-06-01T06:52:09;13.05;;;6.78;;
73515;SDS011;61763;51.416;5.442;2023-06-01T06:54:35;13.27;;;6.07;;
73515;SDS011;61763;51.416;5.442;2023-06-01T06:57:03;11.70;;;5.55;;
73515;SDS011;61763;51.416;5.442;2023-06-01T06:59:29;14.00;;;5.85;;
73515;SDS011;61763;51.416;5.442;2023-06-01T07:01:54;13.80;;;5.95;;
73515;SDS011;61763;51.416;5.442;2023-06-01T07:04:19;15.65;;;5.75;;
73515;SDS011;61763;51.416;5.442;2023-06-01T07:06:45;12.55;;;6.22;;
73515;SDS011;61763;51.416;5.442;2023-06-01T07:09:11;15.43;;;6.38;;
73515;SDS011;61763;51.416;5.442;2023-06-01T07:11:36;14.05;;;6.60;;
73515;SDS011;61763;51.416;5.442;2023-06-01T07:14:01;16.55;;;6.10;;
73515;SDS011;61763;51.416;5.442;2023-06-01T07:16:28;14.32;;;7.03;;
73515;SDS011;61763;51.416;5.442;2023-06-01T07:18:54;10.15;;;5.90;;
73515;SDS011;61763;51.416;5.442;2023-06-01T07:21:21;15.05;;;6.90;;
73515;SDS011;61763;51.416;5.442;2023-06-01T07:23:46;13.15;;;5.53;;
73515;SDS011;61763;51.416;5.442;2023-06-01T07:26:13;16.02;;;5.95;;
73515;SDS011;61763;51.416;5.442;2023-06-01T07:28:38;11.88;;;6.20;;
73515;SDS011;61763;51.416;5.442;2023-06-01T07:31:06;12.70;;;5.95;;
73515;SDS011;61763;51.416;5.442;2023-06-01T07:33:32;11.68;;;6.03;;
73515;SDS011;61763;51.416;5.442;2023-06-01T07:35:59;14.43;;;5.95;;
73515;SDS011;61763;51.416;5.442;2023-06-01T07:38:24;12.75;;;6.10;;
73515;SDS011;61763;51.416;5.442;2023-06-01T07:40:50;11.70;;;5.95;;
73515;SDS011;61763;51.416;5.442;2023-06-01T07:43:16;14.40;;;5.90;;
73515;SDS011;61763;51.416;5.442;2023-06-01T07:45:41;12.50;;;6.10;;
73515;SDS011;61763;51.416;5.442;2023-06-01T07:48:07;11.35;;;5.18;;
73515;SDS011;61763;51.416;5.442;2023-06-01T07:50:33;11.57;;;5.75;;
73515;SDS011;61763;51.416;5.442;2023-06-01T07:52:58;13.93;;;5.72;;
73515;SDS011;61763;51.416;5.442;2023-06-01T07:55:24;13.40;;;5.38;;
73515;SDS011;61763;51.416;5.442;2023-06-01T07:57:49;16.48;;;7.05;;
73515;SDS011;61763;51.416;5.442;2023-06-01T08:00:15;13.43;;;5.90;;
73515;SDS011;61763;51.416;5.442;2023-06-01T08:02:42;14.50;;;5.88;;
73515;SDS011;61763;51.416;5.442;2023-06-01T08:05:08;10.52;;;5.15;;
73515;SDS011;61763;51.416;5.442;2023-06-01T08:07:35;12.75;;;5.63;;
73515;SDS011;61763;51.416;5.442;2023-06-01T08:10:03;13.18;;;5.63;;
73515;SDS011;61763;51.416;5.442;2023-06-01T08:12:33;13.00;;;5.35;;
73515;SDS011;61763;51.416;5.442;2023-06-01T08:14:59;12.50;;;5.85;;
73515;SDS011;61763;51.416;5.442;2023-06-01T08:17:24;12.18;;;5.90;;
73515;SDS011;61763;51.416;5.442;2023-06-01T08:19:50;13.43;;;5.43;;
73515;SDS011;61763;51.416;5.442;2023-06-01T08:22:19;15.98;;;5.60;;
73515;SDS011;61763;51.416;5.442;2023-06-01T08:24:45;11.68;;;5.40;;
73515;SDS011;61763;51.416;5.442;2023-06-01T08:27:19;16.08;;;5.88;;
73515;SDS011;61763;51.416;5.442;2023-06-01T08:29:46;14.85;;;5.68;;
73515;SDS011;61763;51.416;5.442;2023-06-01T08:32:12;13.52;;;4.90;;
73515;SDS011;61763;51.416;5.442;2023-06-01T08:34:38;12.18;;;5.38;;
73515;SDS011;61763;51.416;5.442;2023-06-01T08:37:03;12.00;;;5.30;;
73515;SDS011;61763;51.416;5.442;2023-06-01T08:39:29;14.38;;;5.82;;
73515;SDS011;61763;51.416;5.442;2023-06-01T08:42:02;13.32;;;6.05;;
73515;SDS011;61763;51.416;5.442;2023-06-01T08:44:29;11.20;;;5.00;;
73515;SDS011;61763;51.416;5.442;2023-06-01T08:47:02;11.10;;;4.85;;
73515;SDS011;61763;51.416;5.442;2023-06-01T08:49:28;13.23;;;5.53;;
73515;SDS011;61763;51.416;5.442;2023-06-01T08:51:56;13.02;;;5.82;;
73515;SDS011;61763;51.416;5.442;2023-06-01T08:54:24;12.85;;;5.43;;
73515;SDS011;61763;51.416;5.442;2023-06-01T08:56:50;13.45;;;5.90;;
73515;SDS011;61763;51.416;5.442;2023-06-01T08:59:15;11.13;;;5.55;;
73515;SDS011;61763;51.416;5.442;2023-06-01T09:01:41;17.83;;;6.70;;
73515;SDS011;61763;51.416;5.442;2023-06-01T09:04:08;12.52;;;5.53;;
73515;SDS011;61763;51.416;5.442;2023-06-01T09:06:34;19.10;;;6.32;;
73515;SDS011;61763;51.416;5.442;2023-06-01T09:11:27;13.60;;;5.95;;
73515;SDS011;61763;51.416;5.442;2023-06-01T09:13:53;11.75;;;5.82;;
73515;SDS011;61763;51.416;5.442;2023-06-01T09:16:19;12.88;;;6.35;;
73515;SDS011;61763;51.416;5.442;2023-06-01T09:18:52;12.88;;;5.85;;
73515;SDS011;61763;51.416;5.442;2023-06-01T09:21:18;11.98;;;6.07;;
73515;SDS011;61763;51.416;5.442;2023-06-01T09:23:44;16.05;;;6.15;;
73515;SDS011;61763;51.416;5.442;2023-06-01T09:26:10;13.77;;;5.70;;
73515;SDS011;61763;51.416;5.442;2023-06-01T09:34:16;13.27;;;6.00;;
73515;SDS011;61763;51.416;5.442;2023-06-01T09:36:52;13.95;;;6.32;;
73515;SDS011;61763;51.416;5.442;2023-06-01T09:39:20;12.98;;;5.45;;
73515;SDS011;61763;51.416;5.442;2023-06-01T09:47:08;13.52;;;5.78;;
73515;SDS011;61763;51.416;5.442;2023-06-01T09:49:41;12.48;;;6.43;;
73515;SDS011;61763;51.416;5.442;2023-06-01T09:54:40;13.70;;;6.18;;
73515;SDS011;61763;51.416;5.442;2023-06-01T09:57:05;13.35;;;5.60;;
73515;SDS011;61763;51.416;5.442;2023-06-01T10:02:05;14.85;;;6.85;;
73515;SDS011;61763;51.416;5.442;2023-06-01T10:04:32;15.45;;;7.00;;
73515;SDS011;61763;51.416;5.442;2023-06-01T10:07:02;11.85;;;6.50;;
73515;SDS011;61763;51.416;5.442;2023-06-01T10:09:28;11.98;;;5.38;;
73515;SDS011;61763;51.416;5.442;2023-06-01T10:11:56;14.07;;;6.63;;
73515;SDS011;61763;51.416;5.442;2023-06-01T10:14:24;14.35;;;6.18;;
73515;SDS011;61763;51.416;5.442;2023-06-01T10:16:50;15.18;;;6.53;;
73515;SDS011;61763;51.416;5.442;2023-06-01T10:19:17;14.82;;;6.07;;
73515;SDS011;61763;51.416;5.442;2023-06-01T10:21:44;14.40;;;5.88;;
73515;SDS011;61763;51.416;5.442;2023-06-01T10:24:11;15.73;;;6.57;;
73515;SDS011;61763;51.416;5.442;2023-06-01T10:26:45;13.02;;;6.43;;
73515;SDS011;61763;51.416;5.442;2023-06-01T10:29:20;10.18;;;5.38;;
73515;SDS011;61763;51.416;5.442;2023-06-01T10:34:12;16.27;;;6.70;;
73515;SDS011;61763;51.416;5.442;2023-06-01T10:41:55;14.85;;;5.95;;
73515;SDS011;61763;51.416;5.442;2023-06-01T10:57:31;15.02;;;5.85;;
73515;SDS011;61763;51.416;5.442;2023-06-01T11:00:16;12.75;;;5.93;;
73515;SDS011;61763;51.416;5.442;2023-06-01T11:13:25;12.18;;;5.82;;
73515;SDS011;61763;51.416;5.442;2023-06-01T11:23:37;12.63;;;6.15;;
73515;SDS011;61763;51.416;5.442;2023-06-01T11:26:05;12.32;;;6.45;;
73515;SDS011;61763;51.416;5.442;2023-06-01T11:28:35;12.73;;;7.07;;
73515;SDS011;61763;51.416;5.442;2023-06-01T11:31:01;18.50;;;6.75;;
73515;SDS011;61763;51.416;5.442;2023-06-01T11:33:28;11.93;;;5.60;;
73515;SDS011;61763;51.416;5.442;2023-06-01T11:38:23;12.95;;;6.50;;
73515;SDS011;61763;51.416;5.442;2023-06-01T11:40:58;12.95;;;5.75;;
73515;SDS011;61763;51.416;5.442;2023-06-01T11:43:28;12.05;;;5.93;;
73515;SDS011;61763;51.416;5.442;2023-06-01T11:46:02;13.57;;;6.32;;
73515;SDS011;61763;51.416;5.442;2023-06-01T11:48:29;13.60;;;6.68;;
73515;SDS011;61763;51.416;5.442;2023-06-01T11:50:54;14.35;;;6.60;;
73515;SDS011;61763;51.416;5.442;2023-06-01T11:53:21;12.52;;;6.07;;
73515;SDS011;61763;51.416;5.442;2023-06-01T11:55:54;13.77;;;6.45;;
73515;SDS011;61763;51.416;5.442;2023-06-01T11:58:23;13.55;;;6.38;;
73515;SDS011;61763;51.416;5.442;2023-06-01T12:00:49;12.70;;;6.07;;
73515;SDS011;61763;51.416;5.442;2023-06-01T12:03:14;15.10;;;6.03;;
73515;SDS011;61763;51.416;5.442;2023-06-01T12:05:41;16.48;;;6.78;;
73515;SDS011;61763;51.416;5.442;2023-06-01T12:08:17;13.30;;;6.82;;
73515;SDS011;61763;51.416;5.442;2023-06-01T12:10:45;16.90;;;7.53;;
73515;SDS011;61763;51.416;5.442;2023-06-01T12:13:15;15.15;;;6.47;;
73515;SDS011;61763;51.416;5.442;2023-06-01T12:15:42;13.90;;;6.00;;
73515;SDS011;61763;51.416;5.442;2023-06-01T12:18:07;14.50;;;6.38;;
73515;SDS011;61763;51.416;5.442;2023-06-01T12:23:15;16.27;;;6.45;;
73515;SDS011;61763;51.416;5.442;2023-06-01T12:25:47;15.95;;;6.45;;
73515;SDS011;61763;51.416;5.442;2023-06-01T12:28:13;11.50;;;5.50;;
73515;SDS011;61763;51.416;5.442;2023-06-01T12:30:39;12.05;;;5.80;;
73515;SDS011;61763;51.416;5.442;2023-06-01T12:33:04;11.98;;;5.40;;
73515;SDS011;61763;51.416;5.442;2023-06-01T12:35:30;10.25;;;5.05;;
73515;SDS011;61763;51.416;5.442;2023-06-01T12:38:06;11.23;;;5.30;;
73515;SDS011;61763;51.416;5.442;2023-06-01T12:40:32;12.43;;;5.53;;
73515;SDS011;61763;51.416;5.442;2023-06-01T12:43:01;11.23;;;5.43;;
73515;SDS011;61763;51.416;5.442;2023-06-01T12:45:39;11.50;;;6.05;;
73515;SDS011;61763;51.416;5.442;2023-06-01T12:48:06;9.40;;;5.28;;
73515;SDS011;61763;51.416;5.442;2023-06-01T12:50:32;10.98;;;4.72;;
73515;SDS011;61763;51.416;5.442;2023-06-01T12:52:57;13.63;;;5.85;;
73515;SDS011;61763;51.416;5.442;2023-06-01T12:55:23;12.32;;;5.18;;
73515;SDS011;61763;51.416;5.442;2023-06-01T12:57:52;10.02;;;5.20;;
73515;SDS011;61763;51.416;5.442;2023-06-01T13:00:19;10.48;;;5.32;;
73515;SDS011;61763;51.416;5.442;2023-06-01T13:02:44;12.10;;;4.82;;
73515;SDS011;61763;51.416;5.442;2023-06-01T13:05:14;10.55;;;5.07;;
73515;SDS011;61763;51.416;5.442;2023-06-01T13:07:42;12.10;;;4.55;;
73515;SDS011;61763;51.416;5.442;2023-06-01T13:10:12;10.65;;;5.28;;
73515;SDS011;61763;51.416;5.442;2023-06-01T13:12:38;8.63;;;4.35;;
73515;SDS011;61763;51.416;5.442;2023-06-01T13:15:05;10.02;;;4.80;;
73515;SDS011;61763;51.416;5.442;2023-06-01T13:17:31;9.43;;;5.10;;
73515;SDS011;61763;51.416;5.442;2023-06-01T13:19:57;9.02;;;4.68;;
73515;SDS011;61763;51.416;5.442;2023-06-01T13:22:22;10.55;;;3.80;;
73515;SDS011;61763;51.416;5.442;2023-06-01T13:24:48;11.10;;;4.93;;
73515;SDS011;61763;51.416;5.442;2023-06-01T13:27:13;11.32;;;4.57;;
73515;SDS011;61763;51.416;5.442;2023-06-01T13:29:39;11.32;;;5.38;;
73515;SDS011;61763;51.416;5.442;2023-06-01T13:32:05;7.72;;;4.47;;
73515;SDS011;61763;51.416;5.442;2023-06-01T13:34:30;9.30;;;4.63;;
73515;SDS011;61763;51.416;5.442;2023-06-01T13:36:56;12.55;;;4.65;;
73515;SDS011;61763;51.416;5.442;2023-06-01T13:39:22;8.75;;;4.00;;
73515;SDS011;61763;51.416;5.442;2023-06-01T13:41:49;11.73;;;4.78;;
73515;SDS011;61763;51.416;5.442;2023-06-01T13:44:15;9.93;;;5.05;;
73515;SDS011;61763;51.416;5.442;2023-06-01T13:46:43;10.18;;;4.82;;
73515;SDS011;61763;51.416;5.442;2023-06-01T13:49:08;8.63;;;4.45;;
73515;SDS011;61763;51.416;5.442;2023-06-01T13:51:35;8.70;;;4.50;;
73515;SDS011;61763;51.416;5.442;2023-06-01T13:54:03;12.10;;;5.03;;
73515;SDS011;61763;51.416;5.442;2023-06-01T13:56:28;10.52;;;4.85;;
73515;SDS011;61763;51.416;5.442;2023-06-01T13:58:54;11.15;;;5.40;;
73515;SDS011;61763;51.416;5.442;2023-06-01T14:01:19;9.23;;;4.68;;
73515;SDS011;61763;51.416;5.442;2023-06-01T14:03:45;8.52;;;4.40;;
73515;SDS011;61763;51.416;5.442;2023-06-01T14:06:11;9.02;;;4.65;;
73515;SDS011;61763;51.416;5.442;2023-06-01T14:08:36;10.00;;;4.18;;
73515;SDS011;61763;51.416;5.442;2023-06-01T14:11:02;11.68;;;5.05;;
73515;SDS011;61763;51.416;5.442;2023-06-01T14:13:27;8.02;;;4.15;;
73515;SDS011;61763;51.416;5.442;2023-06-01T14:15:53;9.20;;;4.20;;
73515;SDS011;61763;51.416;5.442;2023-06-01T14:18:18;14.15;;;4.65;;
73515;SDS011;61763;51.416;5.442;2023-06-01T14:20:44;12.10;;;4.60;;
73515;SDS011;61763;51.416;5.442;2023-06-01T14:23:10;8.88;;;4.10;;
73515;SDS011;61763;51.416;5.442;2023-06-01T14:25:36;8.95;;;3.83;;
73515;SDS011;61763;51.416;5.442;2023-06-01T14:28:02;8.43;;;3.72;;
73515;SDS011;61763;51.416;5.442;2023-06-01T14:30:28;10.48;;;3.97;;
73515;SDS011;61763;51.416;5.442;2023-06-01T14:32:53;7.82;;;4.20;;
73515;SDS011;61763;51.416;5.442;2023-06-01T14:35:19;7.78;;;3.42;;
73515;SDS011;61763;51.416;5.442;2023-06-01T14:37:45;11.93;;;3.75;;
73515;SDS011;61763;51.416;5.442;2023-06-01T14:40:11;8.32;;;2.92;;
73515;SDS011;61763;51.416;5.442;2023-06-01T14:42:37;8.50;;;3.67;;
73515;SDS011;61763;51.416;5.442;2023-06-01T14:45:04;6.95;;;2.78;;
73515;SDS011;61763;51.416;5.442;2023-06-01T14:47:29;9.63;;;3.70;;
73515;SDS011;61763;51.416;5.442;2023-06-01T14:49:55;11.45;;;3.55;;
73515;SDS011;61763;51.416;5.442;2023-06-01T14:52:21;10.75;;;2.92;;
73515;SDS011;61763;51.416;5.442;2023-06-01T14:54:47;8.40;;;2.90;;
73515;SDS011;61763;51.416;5.442;2023-06-01T14:57:14;8.88;;;3.00;;
73515;SDS011;61763;51.416;5.442;2023-06-01T14:59:40;9.40;;;3.42;;
73515;SDS011;61763;51.416;5.442;2023-06-01T15:02:06;6.63;;;3.10;;
73515;SDS011;61763;51.416;5.442;2023-06-01T15:04:32;7.72;;;3.22;;
73515;SDS011;61763;51.416;5.442;2023-06-01T15:06:58;7.32;;;2.72;;
73515;SDS011;61763;51.416;5.442;2023-06-01T15:09:24;6.07;;;2.92;;
73515;SDS011;61763;51.416;5.442;2023-06-01T15:11:50;7.80;;;3.00;;
73515;SDS011;61763;51.416;5.442;2023-06-01T15:14:15;7.28;;;3.03;;
73515;SDS011;61763;51.416;5.442;2023-06-01T15:16:41;6.47;;;3.00;;
73515;SDS011;61763;51.416;5.442;2023-06-01T15:19:07;9.57;;;3.67;;
73515;SDS011;61763;51.416;5.442;2023-06-01T15:21:32;7.72;;;3.00;;
73515;SDS011;61763;51.416;5.442;2023-06-01T15:23:58;8.15;;;3.22;;
73515;SDS011;61763;51.416;5.442;2023-06-01T15:26:23;7.38;;;3.63;;
73515;SDS011;61763;51.416;5.442;2023-06-01T15:28:49;8.88;;;3.15;;
73515;SDS011;61763;51.416;5.442;2023-06-01T15:31:15;9.57;;;3.13;;
73515;SDS011;61763;51.416;5.442;2023-06-01T15:33:40;8.32;;;3.83;;
73515;SDS011;61763;51.416;5.442;2023-06-01T15:36:06;9.68;;;3.38;;
73515;SDS011;61763;51.416;5.442;2023-06-01T15:38:31;9.40;;;3.30;;
73515;SDS011;61763;51.416;5.442;2023-06-01T15:40:56;8.85;;;3.03;;
73515;SDS011;61763;51.416;5.442;2023-06-01T15:43:22;6.53;;;2.78;;
73515;SDS011;61763;51.416;5.442;2023-06-01T15:45:47;7.38;;;3.00;;